createdAt,value
2018-01-19T00:01:24.665Z,1.83
2018-01-19T00:03:52.242Z,2.10
2018-01-19T00:06:20.545Z,2.17
2018-01-19T00:08:48.073Z,2.13
2018-01-19T00:11:16.395Z,2.10
2018-01-19T00:13:43.925Z,2.00
2018-01-19T00:16:12.245Z,1.87
2018-01-19T00:18:39.766Z,2.10
2018-01-19T00:21:07.317Z,1.83
2018-01-19T00:23:35.606Z,2.00
2018-01-19T00:26:03.150Z,2.00
2018-01-19T00:28:31.441Z,2.00
2018-01-19T00:30:58.986Z,2.33
2018-01-19T00:33:27.279Z,2.23
2018-01-19T00:35:54.829Z,2.50
2018-01-19T00:38:22.367Z,2.77
2018-01-19T00:40:49.917Z,3.20
2018-01-19T00:43:17.441Z,3.10
2018-01-19T00:45:44.982Z,2.90
2018-01-19T00:48:12.507Z,3.10
2018-01-19T00:50:40.059Z,2.63
2018-01-19T00:53:07.577Z,3.13
2018-01-19T00:55:35.134Z,2.93
2018-01-19T00:58:02.708Z,2.40
2018-01-19T01:00:30.242Z,3.60
2018-01-19T01:02:57.778Z,3.10
2018-01-19T01:05:26.130Z,3.00
2018-01-19T01:07:53.667Z,2.87
2018-01-19T01:10:21.284Z,2.50
2018-01-19T01:12:49.570Z,2.50
2018-01-19T01:15:17.107Z,3.70
2018-01-19T01:17:45.447Z,2.10
2018-01-19T01:20:12.992Z,3.50
2018-01-19T01:22:40.552Z,2.37
2018-01-19T01:25:08.083Z,3.70
2018-01-19T01:27:35.630Z,2.63
2018-01-19T01:30:04.035Z,2.20
2018-01-19T01:32:31.591Z,2.67
2018-01-19T01:34:59.118Z,2.47
2018-01-19T01:37:26.786Z,2.77
2018-01-19T01:39:55.083Z,2.43
2018-01-19T01:42:22.638Z,2.50
2018-01-19T01:44:50.190Z,2.50
2018-01-19T01:47:18.500Z,2.43
2018-01-19T01:49:46.023Z,2.00
2018-01-19T01:52:14.789Z,2.57
2018-01-19T01:54:42.358Z,2.20
2018-01-19T01:57:09.963Z,2.20
2018-01-19T01:59:37.486Z,2.40
2018-01-19T02:02:05.809Z,2.20
2018-01-19T02:04:33.345Z,2.30
2018-01-19T02:07:01.371Z,2.20
2018-01-19T02:09:29.266Z,2.30
2018-01-19T02:11:57.554Z,2.10
2018-01-19T02:14:25.402Z,1.90
2018-01-19T02:16:53.705Z,2.47
2018-01-19T02:19:21.630Z,2.40
2018-01-19T02:21:49.410Z,2.33
2018-01-19T02:24:17.395Z,1.90
2018-01-19T02:26:45.677Z,2.43
2018-01-19T02:29:14.034Z,2.47
2018-01-19T02:31:41.879Z,2.37
2018-01-19T02:34:09.408Z,2.33
2018-01-19T02:36:37.282Z,2.30
2018-01-19T02:39:04.826Z,2.30
2018-01-19T02:41:32.711Z,2.30
2018-01-19T02:44:00.237Z,2.60
2018-01-19T02:46:28.853Z,2.43
2018-01-19T02:48:56.374Z,1.90
2018-01-19T02:51:25.102Z,2.33
2018-01-19T02:53:52.915Z,2.30
2018-01-19T02:56:21.550Z,2.70
2018-01-19T02:58:49.069Z,2.80
2018-01-19T03:01:17.694Z,2.40
2018-01-19T03:03:45.213Z,2.60
2018-01-19T03:06:13.839Z,2.70
2018-01-19T03:08:41.354Z,2.47
2018-01-19T03:11:09.985Z,2.40
2018-01-19T03:13:37.501Z,2.40
2018-01-19T03:16:06.123Z,2.33
2018-01-19T03:18:33.641Z,2.33
2018-01-19T03:21:02.269Z,2.30
2018-01-19T03:23:29.789Z,3.43
2018-01-19T03:25:58.101Z,2.57
2018-01-19T03:28:25.658Z,2.30
2018-01-19T03:30:53.181Z,2.40
2018-01-19T03:33:21.469Z,2.00
2018-01-19T03:35:49.777Z,2.13
2018-01-19T03:38:17.293Z,2.47
2018-01-19T03:40:45.615Z,2.57
2018-01-19T03:43:13.148Z,2.50
2018-01-19T03:45:40.673Z,2.50
2018-01-19T03:48:08.214Z,2.23
2018-01-19T03:50:35.743Z,2.00
2018-01-19T03:53:03.286Z,1.97
2018-01-19T03:55:30.814Z,2.20
2018-01-19T03:57:58.339Z,2.63
2018-01-19T04:00:26.654Z,2.10
2018-01-19T04:02:54.180Z,2.20
2018-01-19T04:05:21.727Z,2.53
2018-01-19T04:07:49.244Z,1.80
2018-01-19T04:10:17.557Z,2.13
2018-01-19T04:12:45.073Z,2.27
2018-01-19T04:15:13.425Z,2.70
2018-01-19T04:17:40.930Z,2.33
2018-01-19T04:20:09.253Z,3.80
2018-01-19T04:22:36.769Z,2.73
2018-01-19T04:25:04.299Z,2.60
2018-01-19T04:27:31.842Z,3.03
2018-01-19T04:29:59.363Z,2.90
2018-01-19T04:32:26.907Z,2.83
2018-01-19T04:34:54.435Z,3.40
2018-01-19T04:37:21.985Z,3.40
2018-01-19T04:39:49.505Z,3.00
2018-01-19T04:42:17.078Z,4.73
2018-01-19T04:44:44.597Z,2.87
2018-01-19T04:47:12.881Z,3.60
2018-01-19T04:49:40.427Z,3.20
2018-01-19T04:52:08.714Z,3.50
2018-01-19T04:54:36.262Z,3.57
2018-01-19T04:57:04.554Z,3.10
2018-01-19T04:59:32.141Z,3.13
2018-01-19T05:01:59.644Z,3.43
2018-01-19T05:04:27.185Z,2.90
2018-01-19T05:06:54.702Z,3.27
2018-01-19T05:09:22.221Z,3.30
2018-01-19T05:11:49.769Z,3.17
2018-01-19T05:14:17.290Z,3.17
2018-01-19T05:16:44.835Z,3.80
2018-01-19T05:19:12.357Z,2.70
2018-01-19T05:21:39.916Z,3.27
2018-01-19T05:24:08.220Z,2.90
2018-01-19T05:26:36.545Z,2.73
2018-01-19T05:29:04.313Z,2.43
2018-01-19T05:31:32.613Z,2.93
2018-01-19T05:34:00.168Z,2.97
2018-01-19T05:36:27.689Z,3.00
2018-01-19T05:38:55.233Z,2.93
2018-01-19T05:41:22.753Z,3.13
2018-01-19T05:43:50.301Z,2.47
2018-01-19T05:46:17.876Z,2.93
2018-01-19T05:48:45.398Z,3.40
2018-01-19T05:51:12.922Z,2.70
2018-01-19T05:53:40.474Z,2.70
2018-01-19T05:56:08.757Z,2.67
2018-01-19T05:58:36.301Z,3.57
2018-01-19T06:01:04.595Z,2.73
2018-01-19T06:03:32.129Z,2.77
2018-01-19T06:06:00.462Z,4.00
2018-01-19T06:08:27.986Z,2.40
2018-01-19T06:10:55.530Z,3.00
2018-01-19T06:13:23.829Z,2.60
2018-01-19T06:15:51.873Z,2.90
2018-01-19T06:18:20.164Z,3.27
2018-01-19T06:20:48.490Z,2.87
2018-01-19T06:23:16.010Z,3.43
2018-01-19T06:25:43.558Z,3.00
2018-01-19T06:28:11.843Z,3.17
2018-01-19T06:51:55.771Z,3.07
2018-01-19T06:54:23.331Z,3.40
2018-01-19T06:56:50.852Z,3.37
2018-01-19T06:59:18.409Z,2.83
2018-01-19T07:01:45.947Z,4.20
2018-01-19T07:04:13.497Z,2.40
2018-01-19T07:06:41.017Z,3.57
2018-01-19T07:09:08.570Z,3.40
2018-01-19T07:11:36.098Z,2.60
2018-01-19T07:14:04.409Z,3.23
2018-01-19T07:16:31.946Z,3.70
2018-01-19T07:18:59.490Z,3.37
2018-01-19T07:21:27.777Z,3.13
2018-01-19T07:23:56.089Z,3.00
2018-01-19T07:26:23.624Z,3.00
2018-01-19T07:28:51.179Z,2.80
2018-01-19T07:31:18.705Z,4.30
2018-01-19T07:33:46.265Z,5.37
2018-01-19T07:36:13.821Z,4.50
2018-01-19T07:38:41.358Z,3.80
2018-01-19T07:41:08.887Z,3.70
2018-01-19T07:43:36.446Z,6.30
2018-01-19T07:46:03.969Z,4.00
2018-01-19T07:48:31.517Z,3.50
2018-01-19T07:50:59.041Z,4.40
2018-01-19T07:53:26.576Z,3.73
2018-01-19T07:55:54.121Z,3.57
2018-01-19T07:58:22.412Z,3.87
2018-01-19T08:00:49.954Z,4.43
2018-01-19T08:03:18.245Z,3.90
2018-01-19T08:05:45.797Z,3.20
2018-01-19T08:08:14.082Z,3.60
2018-01-19T08:10:41.629Z,3.83
2018-01-19T08:13:09.925Z,3.80
2018-01-19T08:15:37.469Z,3.57
2018-01-19T08:18:05.762Z,2.93
2018-01-19T08:20:33.309Z,3.07
2018-01-19T08:23:01.590Z,2.83
2018-01-19T08:25:29.146Z,3.30
2018-01-19T08:27:57.438Z,3.27
2018-01-19T08:30:24.989Z,3.93
2018-01-19T08:32:52.510Z,3.53
2018-01-19T08:35:20.053Z,3.00
2018-01-19T08:37:47.574Z,3.50
2018-01-19T08:40:15.126Z,3.47
2018-01-19T08:42:42.658Z,2.83
2018-01-19T08:45:10.210Z,3.90
2018-01-19T08:47:37.737Z,2.97
2018-01-19T08:50:05.280Z,3.20
2018-01-19T08:52:32.802Z,3.47
2018-01-19T08:55:01.133Z,3.07
2018-01-19T08:57:28.661Z,3.00
2018-01-19T08:59:56.181Z,2.93
2018-01-19T09:02:23.729Z,3.57
2018-01-19T09:04:51.254Z,3.97
2018-01-19T09:07:18.810Z,4.40
2018-01-19T09:09:46.340Z,2.90
2018-01-19T09:12:14.655Z,2.87
2018-01-19T09:14:42.258Z,3.30
2018-01-19T09:17:10.616Z,3.00
2018-01-19T09:19:38.251Z,3.40
2018-01-19T09:22:05.875Z,3.03
2018-01-19T09:24:34.166Z,3.10
2018-01-19T09:27:01.886Z,3.00
2018-01-19T09:29:29.415Z,3.57
2018-01-19T09:31:56.962Z,2.83
2018-01-19T09:34:24.483Z,3.03
2018-01-19T09:36:52.035Z,3.03
2018-01-19T09:39:19.578Z,3.10
2018-01-19T09:41:47.128Z,3.00
2018-01-19T09:44:14.658Z,3.57
2018-01-19T09:46:42.208Z,3.20
2018-01-19T09:49:09.742Z,3.20
2018-01-19T09:51:37.305Z,3.00
2018-01-19T09:54:04.827Z,3.33
2018-01-19T09:56:32.350Z,3.53
2018-01-19T09:58:59.895Z,4.03
2018-01-19T10:01:28.185Z,3.40
2018-01-19T10:03:55.730Z,3.43
2018-01-19T10:06:24.028Z,2.77
2018-01-19T10:08:51.578Z,3.50
2018-01-19T10:11:19.858Z,3.17
2018-01-19T10:13:48.166Z,2.90
2018-01-19T10:16:15.690Z,3.00
2018-01-19T10:18:44.001Z,3.13
2018-01-19T10:21:11.529Z,3.17
2018-01-19T10:23:39.074Z,3.20
2018-01-19T10:26:07.358Z,3.27
2018-01-19T10:28:35.678Z,3.57
2018-01-19T10:31:03.202Z,3.37
2018-01-19T10:33:30.747Z,2.80
2018-01-19T10:35:59.038Z,3.30
2018-01-19T10:38:27.341Z,3.43
2018-01-19T10:40:54.865Z,2.70
2018-01-19T10:43:23.181Z,3.40
2018-01-19T10:45:50.701Z,2.93
2018-01-19T10:48:19.006Z,3.30
2018-01-19T10:50:46.538Z,2.77
2018-01-19T10:53:14.854Z,2.77
2018-01-19T10:55:42.381Z,3.73
2018-01-19T10:58:10.673Z,2.83
2018-01-19T11:00:38.230Z,2.73
2018-01-19T11:03:05.758Z,3.43
2018-01-19T11:05:33.302Z,2.60
2018-01-19T11:08:00.829Z,2.87
2018-01-19T11:10:28.374Z,3.10
2018-01-19T11:12:55.898Z,3.67
2018-01-19T11:15:23.445Z,3.13
2018-01-19T11:17:50.966Z,3.20
2018-01-19T11:20:18.514Z,3.27
2018-01-19T11:22:46.038Z,2.87
2018-01-19T11:25:14.361Z,2.67
2018-01-19T11:27:41.883Z,2.73
2018-01-19T11:30:10.198Z,3.10
2018-01-19T11:32:37.727Z,6.10
2018-01-19T11:35:06.035Z,3.10
2018-01-19T11:37:33.569Z,3.10
2018-01-19T11:40:01.118Z,2.93
2018-01-19T11:42:29.406Z,2.93
2018-01-19T11:44:56.953Z,3.13
2018-01-19T11:47:25.238Z,3.33
2018-01-19T11:49:53.546Z,3.90
2018-01-19T11:52:21.065Z,3.33
2018-01-19T11:54:49.376Z,2.87
2018-01-19T11:57:16.906Z,3.10
2018-01-19T11:59:45.194Z,3.37
2018-01-19T12:02:12.750Z,3.30
2018-01-19T12:04:40.270Z,3.30
2018-01-19T12:07:07.816Z,3.43
2018-01-19T12:09:35.342Z,3.30
2018-01-19T12:12:02.894Z,4.73
2018-01-19T12:14:30.419Z,3.40
2018-01-19T12:16:57.970Z,6.43
2018-01-19T12:19:25.489Z,3.90
2018-01-19T12:21:53.045Z,3.30
2018-01-19T12:24:20.563Z,3.13
2018-01-19T12:26:48.885Z,3.77
2018-01-19T12:29:16.406Z,3.40
2018-01-19T12:31:44.714Z,3.60
2018-01-19T12:34:12.238Z,3.50
2018-01-19T12:36:40.550Z,4.00
2018-01-19T12:39:08.078Z,3.50
2018-01-19T12:41:36.451Z,4.10
2018-01-19T12:44:03.970Z,3.00
2018-01-19T12:46:31.521Z,3.90
2018-01-19T12:48:59.047Z,3.20
2018-01-19T12:51:26.607Z,3.37
2018-01-19T12:53:54.899Z,3.60
2018-01-19T12:56:22.448Z,3.63
2018-01-19T12:58:49.972Z,3.20
2018-01-19T13:01:17.530Z,3.70
2018-01-19T13:03:45.053Z,3.90
2018-01-19T13:06:12.588Z,2.73
2018-01-19T13:08:40.135Z,2.77
2018-01-19T13:11:08.422Z,2.97
2018-01-19T13:13:36.007Z,2.63
2018-01-19T13:16:03.527Z,3.93
2018-01-19T13:18:31.841Z,2.60
2018-01-19T13:20:59.359Z,2.53
2018-01-19T13:23:27.673Z,2.40
2018-01-19T13:25:55.202Z,2.10
2018-01-19T13:28:23.518Z,2.20
2018-01-19T13:30:51.041Z,1.80
2018-01-19T13:33:19.355Z,2.00
2018-01-19T13:35:46.878Z,2.97
2018-01-19T13:38:15.191Z,2.00
2018-01-19T13:40:42.713Z,1.80
2018-01-19T13:43:11.031Z,2.03
2018-01-19T13:45:38.569Z,2.03
2018-01-19T13:48:06.122Z,2.20
2018-01-19T13:50:33.642Z,2.33
2018-01-19T13:53:01.194Z,2.33
2018-01-19T13:55:28.725Z,2.40
2018-01-19T13:57:56.265Z,2.03
2018-01-19T14:00:23.794Z,2.57
2018-01-19T14:02:51.349Z,2.30
2018-01-19T14:05:18.878Z,2.20
2018-01-19T14:07:46.402Z,2.00
2018-01-19T14:10:13.958Z,2.20
2018-01-19T14:12:41.486Z,2.67
2018-01-19T14:15:09.038Z,2.10
2018-01-19T14:17:36.573Z,2.07
2018-01-19T14:20:04.121Z,2.80
2018-01-19T14:22:31.648Z,3.73
2018-01-19T14:24:59.203Z,2.70
2018-01-19T14:27:27.519Z,2.90
2018-01-19T14:29:55.059Z,4.10
2018-01-19T14:32:22.586Z,3.00
2018-01-19T14:34:50.133Z,3.50
2018-01-19T14:37:17.662Z,3.37
2018-01-19T14:39:45.209Z,3.47
2018-01-19T14:42:12.734Z,3.73
2018-01-19T14:44:41.054Z,4.07
2018-01-19T14:47:08.582Z,3.77
2018-01-19T14:49:36.893Z,3.23
2018-01-19T14:52:04.413Z,3.03
2018-01-19T14:54:32.727Z,3.27
2018-01-19T14:57:00.253Z,3.37
2018-01-19T14:59:27.805Z,2.80
2018-01-19T15:01:56.093Z,3.30
2018-01-19T15:04:23.642Z,2.83
2018-01-19T15:06:51.925Z,2.83
2018-01-19T15:09:20.214Z,2.17
2018-01-19T15:11:47.758Z,2.33
2018-01-19T15:14:16.038Z,2.33
2018-01-19T15:16:43.589Z,2.40
2018-01-19T15:19:11.878Z,2.40
2018-01-19T15:21:39.434Z,2.87
2018-01-19T15:24:06.958Z,2.50
2018-01-19T15:26:34.498Z,2.47
2018-01-19T15:29:02.018Z,3.00
2018-01-19T15:31:29.574Z,2.70
2018-01-19T15:33:57.101Z,2.90
2018-01-19T15:36:24.651Z,2.90
2018-01-19T15:38:52.165Z,2.50
2018-01-19T15:41:19.718Z,4.00
2018-01-19T15:43:47.242Z,3.63
2018-01-19T15:46:14.785Z,4.90
2018-01-19T15:48:42.312Z,14.33
2018-01-19T15:51:09.874Z,3.60
2018-01-19T15:53:37.395Z,3.93
2018-01-19T15:56:05.709Z,3.27
2018-01-19T15:58:33.234Z,3.60
2018-01-19T16:01:01.545Z,3.33
2018-01-19T16:03:29.076Z,4.90
2018-01-19T16:05:57.397Z,4.83
2018-01-19T16:08:24.921Z,4.63
2018-01-19T16:10:52.446Z,6.13
2018-01-19T16:13:19.989Z,5.20
2018-01-19T16:15:47.509Z,4.00
2018-01-19T16:18:15.058Z,5.00
2018-01-19T16:20:42.587Z,5.00
2018-01-19T16:23:10.133Z,4.20
2018-01-19T16:25:37.660Z,3.80
2018-01-19T16:28:05.211Z,4.67
2018-01-19T16:30:32.739Z,4.33
2018-01-19T16:33:01.051Z,4.43
2018-01-19T16:35:28.573Z,4.70
2018-01-19T16:37:56.879Z,5.30
2018-01-19T16:40:24.402Z,4.70
2018-01-19T16:42:51.955Z,5.17
2018-01-19T16:45:19.478Z,4.50
2018-01-19T16:47:47.022Z,6.57
2018-01-19T16:50:14.574Z,8.67
2018-01-19T16:52:42.125Z,8.73
2018-01-19T16:55:09.981Z,7.10
2018-01-19T16:57:37.607Z,6.50
2018-01-19T17:00:05.149Z,4.70
2018-01-19T17:02:32.697Z,6.30
2018-01-19T17:05:00.218Z,4.87
2018-01-19T17:07:28.543Z,5.93
2018-01-19T17:09:56.066Z,5.27
2018-01-19T17:12:23.590Z,5.17
2018-01-19T17:14:51.138Z,5.40
2018-01-19T17:17:18.657Z,5.93
2018-01-19T17:19:46.210Z,3.80
2018-01-19T17:22:13.731Z,3.40
2018-01-19T17:24:41.281Z,3.77
2018-01-19T17:27:08.804Z,3.90
2018-01-19T17:29:36.345Z,3.50
2018-01-19T17:32:03.875Z,4.90
2018-01-19T17:34:31.429Z,5.40
2018-01-19T17:36:58.958Z,24.60
2018-01-19T17:39:26.511Z,9.80
2018-01-19T17:41:54.034Z,5.80
2018-01-19T17:44:22.354Z,3.50
2018-01-19T17:46:49.879Z,4.03
2018-01-19T17:49:17.434Z,4.60
2018-01-19T17:51:44.966Z,4.70
2018-01-19T17:54:12.530Z,4.90
2018-01-19T17:56:40.094Z,5.17
2018-01-19T17:59:08.405Z,6.30
2018-01-19T18:01:35.936Z,5.90
2018-01-19T18:04:04.252Z,7.80
2018-01-19T18:06:31.787Z,6.70
2018-01-19T18:08:59.341Z,7.53
2018-01-19T18:11:27.662Z,6.77
2018-01-19T18:13:55.234Z,6.77
2018-01-19T18:16:22.766Z,7.10
2018-01-19T18:18:50.323Z,5.90
2018-01-19T18:21:17.858Z,6.40
2018-01-19T18:23:46.181Z,6.70
2018-01-19T18:26:13.702Z,6.67
2018-01-19T18:28:41.261Z,6.53
2018-01-19T18:31:08.794Z,7.50
2018-01-19T18:33:36.350Z,6.67
2018-01-19T18:36:03.874Z,6.93
2018-01-19T18:38:31.438Z,8.45
2018-01-19T18:40:58.970Z,6.87
2018-01-19T18:43:26.536Z,8.10
2018-01-19T18:45:54.071Z,10.57
2018-01-19T18:48:21.607Z,8.77
2018-01-19T18:50:49.154Z,9.27
2018-01-19T18:53:16.682Z,9.37
2018-01-19T18:55:44.227Z,7.47
2018-01-19T18:58:11.754Z,8.90
2018-01-19T19:00:40.094Z,10.60
2018-01-19T19:03:07.627Z,8.67
2018-01-19T19:05:35.185Z,10.20
2018-01-19T19:08:02.714Z,11.27
2018-01-19T19:10:31.038Z,10.70
2018-01-19T19:12:58.572Z,10.17
2018-01-19T19:15:26.129Z,10.43
2018-01-19T19:17:53.670Z,11.17
2018-01-19T19:20:22.001Z,11.87
2018-01-19T19:22:49.537Z,11.90
2018-01-19T19:25:17.125Z,11.80
2018-01-19T19:27:44.663Z,13.43
2018-01-19T19:30:12.218Z,11.60
2018-01-19T19:32:39.742Z,11.87
2018-01-19T19:35:08.063Z,12.33
2018-01-19T19:37:35.626Z,10.50
2018-01-19T19:40:03.198Z,11.80
2018-01-19T19:42:30.730Z,11.70
2018-01-19T19:44:58.279Z,11.70
2018-01-19T19:47:26.575Z,11.37
2018-01-19T19:49:54.125Z,11.60
2018-01-19T19:52:21.651Z,10.40
2018-01-19T19:54:49.225Z,10.30
2018-01-19T19:57:17.513Z,11.27
2018-01-19T19:59:45.824Z,10.40
2018-01-19T20:02:13.346Z,10.10
2018-01-19T20:04:40.909Z,10.40
2018-01-19T20:07:09.208Z,9.20
2018-01-19T20:09:36.754Z,10.73
2018-01-19T20:12:04.290Z,10.20
2018-01-19T20:14:32.622Z,9.27
2018-01-19T20:17:00.153Z,10.63
2018-01-19T20:19:27.707Z,10.03
2018-01-19T20:21:55.237Z,10.37
2018-01-19T20:24:22.845Z,11.63
2018-01-19T20:26:51.112Z,11.30
2018-01-19T20:29:18.690Z,11.63
2018-01-19T20:31:46.217Z,10.90
2018-01-19T20:34:13.782Z,10.00
2018-01-19T20:36:41.314Z,12.40
2018-01-19T20:39:09.635Z,11.33
2018-01-19T20:41:37.161Z,10.40
2018-01-19T20:44:05.469Z,11.00
2018-01-19T20:46:32.999Z,11.00
2018-01-19T20:49:01.322Z,10.90
2018-01-19T20:51:28.859Z,11.83
2018-01-19T20:53:56.385Z,11.93
2018-01-19T20:56:23.943Z,10.70
2018-01-19T20:58:52.246Z,12.53
2018-01-19T21:01:19.814Z,11.03
2018-01-19T21:03:47.357Z,10.40
2018-01-19T21:06:15.683Z,11.57
2018-01-19T21:08:43.208Z,11.00
2018-01-19T21:11:11.058Z,10.47
2018-01-19T21:13:39.349Z,11.27
2018-01-19T21:16:06.900Z,10.33
2018-01-19T21:18:35.204Z,10.10
2018-01-19T21:21:03.206Z,10.87
2018-01-19T21:23:30.852Z,10.90
2018-01-19T21:25:58.464Z,10.87
2018-01-19T21:28:26.096Z,10.50
2018-01-19T21:30:54.454Z,8.73
2018-01-19T21:33:22.545Z,9.40
2018-01-19T21:35:50.168Z,9.40
2018-01-19T21:38:17.806Z,10.50
2018-01-19T21:40:46.222Z,9.70
2018-01-19T21:43:14.356Z,9.17
2018-01-19T21:45:42.528Z,10.20
2018-01-19T21:48:10.204Z,9.37
2018-01-19T21:50:38.605Z,8.13
2018-01-19T21:53:06.159Z,7.97
2018-01-19T21:55:33.943Z,9.67
2018-01-19T21:58:02.100Z,7.97
2018-01-19T22:00:29.714Z,8.40
2018-01-19T22:02:58.029Z,8.63
2018-01-19T22:05:25.557Z,8.63
2018-01-19T22:07:54.080Z,10.00
2018-01-19T22:10:22.057Z,7.70
2018-01-19T22:12:49.679Z,8.73
2018-01-19T22:15:17.974Z,9.13
2018-01-19T22:17:45.582Z,7.27
2018-01-19T22:20:13.723Z,8.97
2018-01-19T22:22:41.416Z,10.30
2018-01-19T22:25:08.975Z,9.37
2018-01-19T22:27:36.533Z,8.33
2018-01-19T22:30:04.082Z,9.80
2018-01-19T22:32:31.631Z,8.57
2018-01-19T22:34:59.169Z,9.30
2018-01-19T22:37:26.716Z,9.70
2018-01-19T22:39:55.005Z,8.93
2018-01-19T22:42:22.569Z,9.07
2018-01-19T22:44:50.093Z,9.40
2018-01-19T22:47:17.658Z,9.57
2018-01-19T22:49:45.193Z,11.90
2018-01-19T22:52:12.742Z,9.17
2018-01-19T22:54:40.269Z,9.90
2018-01-19T22:57:07.798Z,11.83
2018-01-19T22:59:36.117Z,9.70
2018-01-19T23:02:03.657Z,12.00
2018-01-19T23:04:31.215Z,8.30
2018-01-19T23:06:58.745Z,9.07
2018-01-19T23:09:26.290Z,7.43
2018-01-19T23:11:53.822Z,9.90
2018-01-19T23:14:21.369Z,8.43
2018-01-19T23:16:48.900Z,7.30
2018-01-19T23:19:17.211Z,7.67
2018-01-19T23:21:44.737Z,8.37
2018-01-19T23:24:13.056Z,8.03
2018-01-19T23:26:40.574Z,6.60
2018-01-19T23:29:08.884Z,6.17
2018-01-19T23:31:36.420Z,6.70
2018-01-19T23:34:03.979Z,8.07
2018-01-19T23:36:31.510Z,7.20
2018-01-19T23:38:59.058Z,6.80
2018-01-19T23:41:26.586Z,6.20
2018-01-19T23:43:54.133Z,7.00
2018-01-19T23:46:21.666Z,5.53
2018-01-19T23:48:49.981Z,5.07
2018-01-19T23:51:17.509Z,4.50
2018-01-19T23:53:45.826Z,3.80
2018-01-19T23:56:13.346Z,2.70
2018-01-19T23:58:41.634Z,2.73
